Terminal Aerodrome Forecast
Issued by NWS Memphis, TN

Home | Current Version | Previous Version | Text Only | Print | Product List | Glossary On
Versions: 1 2 3 4 5 6 7 8 9 10 11 12 13 14 15 16 17 18 19 20 21 22 23 24 25 26 27 28 29 30
000
FTUS44 KMEG 040253 AAB
TAFMEM
TAF AMD
KMEM 040253Z 0403/0424 20010KT 2SM BR OVC002
     FM040900 34012G18KT 3SM -RA BR OVC003
     FM041200 01015G20KT 3SM -RA BR OVC003
     FM042300 01013G18KT 4SM -FZRAPL OVC004=

USA.gov is the U.S. government's official web portal to all federal, state and local government web resources and services.